METAR Data
IDs: Format: Raw Decoded Include TAF

Data at: 0907 UTC 26 Jan 2020

KPCZ 260855Z AUTO 28006KT 10SM OVC014 02/00 A2985 RMK AO2 T00191003
KPCZ 260835Z AUTO 28007KT 10SM OVC014 02/00 A2985 RMK AO2 T00201002
KPCZ 260815Z AUTO 28004KT 10SM OVC014 02/00 A2985 RMK AO2 T00200000
KPCZ 260755Z AUTO 28006KT 10SM BKN014 BKN019 OVC060 02/00 A2985 RMK AO2 T00200000
KPCZ 260735Z AUTO 28005KT 10SM SCT019 SCT045 OVC060 02/00 A2985 RMK AO2 T00170000
KPCZ 260715Z AUTO 28006KT 10SM SCT019 SCT045 OVC060 02/00 A2984 RMK AO2 T00170000
KPCZ 260655Z AUTO 27007KT 5SM -RA OVC017 02/00 A2984 RMK AO2 T00180000
KPCZ 260635Z AUTO 28006KT 7SM UP OVC014 02/00 A2985 RMK AO2 T00200000
KPCZ 260615Z AUTO 27005KT 10SM OVC014 02/00 A2984 RMK AO2 T00210001
KPCZ 260555Z AUTO 28005KT 10SM BKN018 OVC041 02/00 A2985 RMK AO2 T00210001 10023 20020
KPCZ 260535Z AUTO 29004KT 10SM SCT018 OVC043 02/00 A2984 RMK AO2 T00200001
KPCZ 260515Z AUTO 27004KT 10SM SCT020 BKN030 OVC045 02/00 A2985 RMK AO2 T00210001
KPCZ 260455Z AUTO 28004KT 10SM OVC032 02/00 A2985 RMK AO2 T00210000 400310007
KPCZ 260435Z AUTO 27005KT 10SM BKN032 OVC045 02/00 A2984 RMK AO2 T00210000
KPCZ 260415Z AUTO 30005KT 10SM OVC032 02/00 A2984 RMK AO2 T00210000
KPCZ 260355Z AUTO 29005KT 10SM OVC035 02/00 A2984 RMK AO2 T00210004
KPCZ 260335Z AUTO 29006KT 10SM SCT012 BKN033 OVC039 02/01 A2984 RMK AO2 T00210005
KPCZ 260315Z AUTO 28003KT 10SM -DZ BKN012 BKN035 OVC044 02/01 A2984 RMK AO2 T00210005
KPCZ 260255Z AUTO 28003KT 10SM -DZ SCT010 BKN013 OVC044 02/01 A2983 RMK AO2 T00210005
KPCZ 260235Z AUTO 27004KT 10SM SCT008 OVC046 02/01 A2983 RMK AO2 T00210005
KPCZ 260215Z AUTO 28004KT 10SM BKN046 BKN075 OVC090 02/01 A2983 RMK AO2 T00220005
KPCZ 260155Z AUTO 28005KT 10SM BKN042 BKN049 OVC090 02/01 A2983 RMK AO2 T00220005
KPCZ 260135Z AUTO 27004KT 10SM BKN042 OVC049 02/00 A2984 RMK AO2 T00210004
KPCZ 260115Z AUTO 27004KT 10SM SCT025 BKN040 OVC048 02/00 A2983 RMK AO2 T00210002
KPCZ 260055Z AUTO 27003KT 10SM -DZ OVC023 02/00 A2984 RMK AO2 T00220003
KPCZ 260035Z AUTO 28003KT 10SM BKN023 OVC029 02/01 A2983 RMK AO2 T00230005
KPCZ 260015Z AUTO 29003KT 10SM SCT020 SCT027 OVC036 02/00 A2983 RMK AO2 T00210002
KPCZ 252355Z AUTO 27004KT 10SM SCT022 SCT029 OVC036 02/00 A2983 RMK AO2 T00210002 10031 20021
KPCZ 252335Z AUTO 26003KT 10SM BKN022 OVC029 02/00 A2982 RMK AO2 T00220002
KPCZ 252315Z AUTO 27003KT 10SM BKN022 BKN027 OVC033 02/00 A2982 RMK AO2 T00240001
KPCZ 252255Z AUTO 28003KT 10SM SCT023 BKN030 OVC035 03/00 A2982 RMK AO2 T00250002
KPCZ 252235Z AUTO 29003KT 10SM OVC021 03/00 A2981 RMK AO2 T00260002
KPCZ 252215Z AUTO 00000KT 10SM OVC017 03/00 A2981 RMK AO2 T00260001
KPCZ 252155Z AUTO 28003KT 10SM OVC017 03/00 A2981 RMK AO2 T00270000
KPCZ 252135Z AUTO 00000KT 10SM OVC017 03/00 A2980 RMK AO2 T00300002
KPCZ 252115Z AUTO 30003KT 10SM OVC017 03/00 A2980 RMK AO2 T00310001
KPCZ 252055Z AUTO 30004KT 10SM SCT011 OVC019 03/00 A2979 RMK AO2 T00310001
KPCZ 252035Z AUTO 31004KT 10SM BKN013 OVC022 03/00 A2979 RMK AO2 T00310001
KPCZ 252015Z AUTO 31004KT 10SM BKN012 OVC018 03/00 A2978 RMK AO2 T00310001
KPCZ 251955Z AUTO 31005KT 10SM SCT012 OVC018 03/00 A2978 RMK AO2 T00310001
KPCZ 251935Z AUTO 32003KT 10SM SCT012 OVC016 03/00 A2979 RMK AO2 T00310001
KPCZ 251915Z AUTO 32005KT 10SM OVC016 03/00 A2979 RMK AO2 T00300000
KPCZ 251855Z AUTO 31004KT 10SM OVC014 03/00 A2979 RMK AO2 T00270000
KPCZ 251835Z AUTO 31004KT 10SM OVC012 03/00 A2979 RMK AO2 T00250000
KPCZ 251815Z AUTO 31003KT 10SM OVC012 03/00 A2979 RMK AO2 T00250000
KPCZ 251755Z AUTO 31004KT 10SM OVC012 02/00 A2980 RMK AO2 60002 T00240000 10025 20007
KPCZ 251735Z AUTO 31003KT 10SM OVC014 03/00 A2980 RMK AO2 T00250000
KPCZ 251715Z AUTO 32005KT 10SM SCT010 OVC016 03/00 A2980 RMK AO2 T00250000
KPCZ 251655Z AUTO 32004KT 10SM OVC016 02/00 A2980 RMK AO2 T00230000
KPCZ 251635Z AUTO 31004KT 10SM SCT009 OVC014 02/00 A2980 RMK AO2 T00210000
KPCZ 251615Z AUTO 32003KT 10SM OVC014 02/00 A2980 RMK AO2 T00200001
KPCZ 251555Z AUTO 32003KT 10SM OVC014 02/00 A2980 RMK AO2 T00150003
KPCZ 251535Z AUTO 33003KT 10SM SCT007 OVC014 01/00 A2979 RMK AO2 T00120003
KPCZ 251515Z AUTO 32005KT 10SM SCT006 OVC014 01/00 A2978 RMK AO2 T00110002
KPCZ 251455Z AUTO 31003KT 7SM -SN SCT008 BKN014 01/01 A2979 RMK AO2 60002 T00120005
KPCZ 251435Z AUTO 31003KT 3SM -SN SCT005 OVC012 01/00 A2979 RMK AO2 T00110003
KPCZ 251415Z AUTO 00000KT 1 1/4SM -SN OVC008 01/00 A2980 RMK AO2 T00100002
KPCZ 251355Z AUTO 32003KT 1 1/4SM -SN SCT005 BKN010 OVC017 01/00 A2979 RMK AO2 T00090000
KPCZ 251335Z AUTO 00000KT 2SM -SN BKN015 OVC023 01/00 A2979 RMK AO2 T00070000
KPCZ 251315Z AUTO 33003KT 5SM -SN BKN008 BKN045 OVC070 01/00 A2978 RMK AO2 T00070000
KPCZ 251255Z AUTO 32003KT 1 1/2SM -SN SCT004 OVC008 01/00 A2978 RMK AO2 P0002 T00080000
KPCZ 251235Z AUTO 31003KT 1 1/2SM -SN SCT004 OVC008 01/00 A2978 RMK AO2 P0001 T00080000
KPCZ 251215Z AUTO 32003KT 1 1/4SM -SN SCT002 OVC006 01/00 A2978 RMK AO2 P0001 T00080000
KPCZ 251155Z AUTO 32003KT 1 1/2SM -SN OVC006 01/00 A2977 RMK AO2 P0002 60003 70005 T00080000 10011 20008
KPCZ 251135Z AUTO 00000KT 1 3/4SM -SN OVC006 01/00 A2977 RMK AO2 P0002 T00090000
KPCZ 251115Z AUTO 32003KT 1 1/4SM -SN OVC006 01/00 A2976 RMK AO2 P0001 T00100002
KPCZ 251055Z AUTO 00000KT 1 1/2SM -SN OVC004 01/00 A2976 RMK AO2 T00100002
KPCZ 251035Z AUTO 33003KT 2 1/2SM -SN BKN007 OVC011 01/00 A2976 RMK AO2 T00100001
KPCZ 251015Z AUTO 33003KT 2 1/2SM UP BKN005 OVC009 01/00 A2976 RMK AO2 T00100001
KPCZ 250955Z AUTO 34003KT 2 1/2SM UP BKN006 OVC009 01/00 A2976 RMK AO2 P0001 T00100001
KPCZ 250935Z AUTO 35003KT 2SM -SN OVC006 01/00 A2977 RMK AO2 T00110002
KPCZ 250915Z AUTO 34003KT 2SM -SN OVC006 01/00 A2977 RMK AO2 T00110002
KPCZ 250855Z AUTO 34003KT 2SM -SN OVC006 01/00 A2977 RMK AO2 T00110002
KPCZ 250835Z AUTO 34004KT 3SM -SN BKN007 OVC011 01/00 A2978 RMK AO2 T00110002
KPCZ 250815Z AUTO 35003KT 5SM -SN SCT004 OVC010 01/00 A2978 RMK AO2 T00110002
KPCZ 250755Z AUTO 34004KT 2 1/2SM -SN SCT004 OVC009 01/00 A2978 RMK AO2 VIS 1 3/4V4 T00110002
KPCZ 250735Z AUTO 34005KT 4SM -SN BKN006 OVC010 01/00 A2978 RMK AO2 T00110002
KPCZ 250715Z AUTO 34005KT 7SM -RA BKN006 OVC010 01/00 A2979 RMK AO2 T00110002
KPCZ 250655Z AUTO 35005KT 5SM BR BKN006 OVC010 01/00 A2978 RMK AO2 T00110002
KPCZ 250635Z AUTO 35005KT 5SM BR OVC006 01/00 A2979 RMK AO2 T00110002
KPCZ 250615Z AUTO 34005KT 4SM -RA SCT006 OVC010 01/00 A2979 RMK AO2 T00110002
KPCZ 250555Z AUTO 34005KT 4SM -DZ BKN004 OVC010 01/00 A2980 RMK AO2 60002 T00110002 10017 20011
KPCZ 250535Z AUTO 35005KT 4SM -RA BKN006 OVC012 01/00 A2981 RMK AO2 T00110002
KPCZ 250515Z AUTO 35004KT 4SM -SN BKN006 OVC010 01/00 A2981 RMK AO2 T00110002
KPCZ 250455Z AUTO 35004KT 4SM -SN OVC008 01/00 A2981 RMK AO2 T00110002 400230005
KPCZ 250435Z AUTO 35004KT 3SM -SN OVC008 01/00 A2982 RMK AO2 T00110002
KPCZ 250415Z AUTO 36004KT 7SM BKN005 OVC010 01/00 A2981 RMK AO2 T00110002
KPCZ 250355Z AUTO 36004KT 1 1/2SM -SN OVC005 01/00 A2982 RMK AO2 P0002 T00110002
KPCZ 250335Z AUTO 36005KT 3SM UP OVC005 01/00 A2983 RMK AO2 P0001 T00120003
KPCZ 250315Z AUTO 36004KT 1 3/4SM -SN OVC005 01/00 A2983 RMK AO2 P0001 T00120003
KPCZ 250255Z AUTO 36005KT 2SM -SN OVC005 01/00 A2983 RMK AO2 T00130003
KPCZ 250235Z AUTO 35005KT 3SM RA BKN005 OVC010 01/01 A2983 RMK AO2 T00130005
KPCZ 250215Z AUTO 35005KT 4SM -RA OVC005 02/01 A2984 RMK AO2 T00150005
KPCZ 250155Z AUTO 36006KT 2 1/2SM -DZ OVC005 02/01 A2984 RMK AO2 T00150005
KPCZ 250135Z AUTO 36005KT 2 1/2SM -DZ OVC003 02/01 A2985 RMK AO2 T00160006
KPCZ 250115Z AUTO 36005KT 1 3/4SM BR OVC003 02/01 A2985 RMK AO2 T00160006
KPCZ 250055Z AUTO 01006KT 2SM BR OVC003 02/01 A2986 RMK AO2 T00160005
KPCZ 250035Z AUTO 01004KT 2SM BR OVC003 02/01 A2986 RMK AO2 T00160005
KPCZ 250015Z AUTO 01006KT 2SM BR OVC003 02/01 A2986 RMK AO2 T00160005
KPCZ 242355Z AUTO 01005KT 2 1/2SM BR OVC005 02/01 A2986 RMK AO2 T00170006 10023 20017
KPCZ 242335Z AUTO 01005KT 3SM BR OVC005 02/01 A2986 RMK AO2 T00170006
KPCZ 242315Z AUTO 01005KT 3SM BR OVC005 02/01 A2986 RMK AO2 T00170005
KPCZ 242255Z AUTO 01005KT 2SM BR OVC005 02/01 A2986 RMK AO2 T00180005
KPCZ 242235Z AUTO 02006KT 3SM BR OVC005 02/01 A2986 RMK AO2 T00190005
KPCZ 242215Z AUTO 02005KT 5SM BR OVC005 02/01 A2986 RMK AO2 T00200006
KPCZ 242155Z AUTO 02005KT 5SM BR OVC005 02/01 A2986 RMK AO2 T00210008
KPCZ 242135Z AUTO 03003KT 4SM BR OVC005 02/01 A2987 RMK AO2 T00210007
KPCZ 242115Z AUTO 03006KT 3SM -RA OVC005 02/01 A2987 RMK AO2 T00210008